Time;durP1;ratioP1;P1;durP2;ratioP2;P2;SDS_P1;SDS_P2;PMS_P1;PMS_P2;Temp;Humidity;BMP_temperature;BMP_pressure;BME280_temperature;BME280_humidity;BME280_pressure;Samples;Min_cycle;Max_cycle;Signal;HPM_P1;HPM_P2
2021/12/30 00:00:47;;;;;;;14.07;9.40;;;;;;;;;;5072585;28;20413;-60
2021/12/30 00:03:14;;;;;;;9.83;8.87;;;;;;;;;;5073255;28;20414;-61
2021/12/30 00:05:41;;;;;;;9.77;8.77;;;;;;;;;;5073555;28;20442;-55
2021/12/30 00:08:07;;;;;;;9.50;8.37;;;;;;;;;;5073331;28;20414;-54
2021/12/30 00:10:33;;;;;;;10.90;8.53;;;;;;;;;;5073057;28;20926;-51
2021/12/30 00:12:59;;;;;;;9.73;8.83;;;;;;;;;;5073105;28;20806;-59
2021/12/30 00:15:26;;;;;;;9.73;8.47;;;;;;;;;;5072894;28;20414;-52
2021/12/30 00:17:52;;;;;;;9.83;8.83;;;;;;;;;;5073280;28;20467;-54
2021/12/30 00:20:19;;;;;;;11.50;9.40;;;;;;;;;;5072892;28;20469;-51
2021/12/30 00:22:46;;;;;;;9.17;8.30;;;;;;;;;;5068472;28;20472;-52
2021/12/30 00:25:12;;;;;;;9.70;8.70;;;;;;;;;;5072216;28;20925;-52
2021/12/30 00:27:38;;;;;;;8.73;7.77;;;;;;;;;;5072896;28;20496;-56
2021/12/30 00:30:06;;;;;;;8.33;7.53;;;;;;;;;;5071472;28;20745;-53
2021/12/30 00:32:32;;;;;;;9.53;7.87;;;;;;;;;;5072693;28;20429;-55
2021/12/30 00:34:58;;;;;;;8.67;7.87;;;;;;;;;;5071162;28;20887;-55
2021/12/30 00:37:24;;;;;;;9.70;7.90;;;;;;;;;;5071366;28;20903;-56
2021/12/30 00:39:50;;;;;;;8.67;7.77;;;;;;;;;;5072571;28;20414;-55
2021/12/30 00:42:16;;;;;;;8.20;7.60;;;;;;;;;;5071074;28;20779;-57
2021/12/30 00:44:42;;;;;;;8.90;8.00;;;;;;;;;;5071205;28;20834;-52
2021/12/30 00:47:08;;;;;;;9.77;8.60;;;;;;;;;;5072325;28;20502;-52
2021/12/30 00:49:34;;;;;;;8.60;7.80;;;;;;;;;;5072489;28;20764;-56
2021/12/30 00:52:00;;;;;;;9.40;8.40;;;;;;;;;;5072256;28;21028;-55
2021/12/30 00:54:26;;;;;;;9.17;8.27;;;;;;;;;;5071056;28;20801;-62
2021/12/30 00:56:52;;;;;;;12.30;9.73;;;;;;;;;;5073015;28;20441;-60
2021/12/30 00:59:18;;;;;;;8.73;7.67;;;;;;;;;;5072492;28;20760;-59
2021/12/30 01:01:44;;;;;;;9.57;8.23;;;;;;;;;;5071017;28;20411;-59
2021/12/30 01:04:10;;;;;;;11.07;8.47;;;;;;;;;;5054254;28;20410;-52
2021/12/30 01:06:36;;;;;;;11.03;8.90;;;;;;;;;;5072130;28;20430;-55
2021/12/30 01:09:03;;;;;;;8.80;7.87;;;;;;;;;;5072127;28;20458;-51
2021/12/30 01:11:29;;;;;;;9.83;7.77;;;;;;;;;;5072173;28;20477;-52
2021/12/30 01:14:09;;;;;;;7.70;7.00;;;;;;;;;;5070982;28;20406;-54
2021/12/30 01:16:41;;;;;;;10.17;8.10;;;;;;;;;;5070726;28;20952;-54
2021/12/30 01:21:46;;;;;;;8.33;7.60;;;;;;;;;;5072348;28;20425;-54
2021/12/30 01:24:12;;;;;;;10.40;7.57;;;;;;;;;;5072138;28;20489;-55
2021/12/30 01:26:38;;;;;;;9.10;8.20;;;;;;;;;;5072068;28;20438;-62
2021/12/30 01:29:04;;;;;;;8.50;7.70;;;;;;;;;;5072066;28;20756;-62
2021/12/30 01:31:30;;;;;;;8.73;7.70;;;;;;;;;;5072085;28;20866;-57
2021/12/30 01:33:56;;;;;;;8.80;7.90;;;;;;;;;;5071944;28;20452;-56
2021/12/30 01:36:25;;;;;;;7.97;7.20;;;;;;;;;;5078332;28;20410;-60
2021/12/30 01:38:52;;;;;;;8.30;7.47;;;;;;;;;;5078932;28;20406;-60
2021/12/30 01:41:18;;;;;;;10.83;7.70;;;;;;;;;;5078515;28;20459;-64
2021/12/30 01:43:45;;;;;;;8.27;7.47;;;;;;;;;;5078414;28;20841;-64
2021/12/30 01:46:11;;;;;;;8.67;7.87;;;;;;;;;;5078556;28;20422;-60
2021/12/30 01:48:37;;;;;;;7.70;7.10;;;;;;;;;;5078556;28;20406;-62
2021/12/30 01:51:04;;;;;;;7.90;7.10;;;;;;;;;;5078282;28;20462;-65
2021/12/30 01:53:30;;;;;;;7.63;6.97;;;;;;;;;;5078423;28;20548;-55
2021/12/30 01:55:56;;;;;;;8.00;7.20;;;;;;;;;;5078447;28;20518;-52
2021/12/30 01:58:22;;;;;;;7.80;7.10;;;;;;;;;;5078503;28;20403;-53
2021/12/30 02:00:49;;;;;;;7.23;6.57;;;;;;;;;;5077139;28;20794;-53
2021/12/30 02:03:16;;;;;;;7.37;6.67;;;;;;;;;;5078509;28;20407;-54
2021/12/30 02:05:42;;;;;;;7.40;6.70;;;;;;;;;;5078187;28;20421;-52
2021/12/30 02:08:12;;;;;;;7.57;6.90;;;;;;;;;;5078263;28;20402;-52
2021/12/30 02:10:40;;;;;;;10.30;6.70;;;;;;;;;;5076828;28;20462;-53
2021/12/30 02:13:06;;;;;;;7.37;6.77;;;;;;;;;;5078193;28;20467;-59
2021/12/30 02:15:32;;;;;;;7.03;6.47;;;;;;;;;;5078299;28;20410;-58
2021/12/30 02:17:59;;;;;;;6.00;5.50;;;;;;;;;;5078183;28;20405;-55
2021/12/30 02:20:45;;;;;;;7.00;6.40;;;;;;;;;;5078001;28;20461;-56
2021/12/30 02:23:11;;;;;;;6.50;6.10;;;;;;;;;;5078084;28;20410;-54
2021/12/30 02:25:37;;;;;;;6.87;6.37;;;;;;;;;;5078448;28;20402;-54
2021/12/30 02:28:10;;;;;;;7.10;6.53;;;;;;;;;;5078295;28;20409;-54
2021/12/30 02:30:37;;;;;;;6.80;6.20;;;;;;;;;;5078286;28;20552;-55
2021/12/30 02:33:03;;;;;;;6.87;6.37;;;;;;;;;;5077232;28;20430;-58
2021/12/30 02:35:31;;;;;;;6.23;5.83;;;;;;;;;;5078062;28;20414;-58
2021/12/30 02:37:57;;;;;;;7.00;6.40;;;;;;;;;;5077091;28;20410;-60
2021/12/30 02:40:28;;;;;;;7.00;6.30;;;;;;;;;;5078058;28;20415;-52
2021/12/30 02:42:54;;;;;;;6.77;6.17;;;;;;;;;;5078033;28;20804;-56
2021/12/30 02:45:20;;;;;;;7.30;6.67;;;;;;;;;;5078186;28;20406;-60
2021/12/30 02:47:47;;;;;;;6.70;6.27;;;;;;;;;;5073988;28;20406;-57
2021/12/30 02:50:13;;;;;;;7.17;6.57;;;;;;;;;;5074383;28;20530;-53
2021/12/30 02:52:39;;;;;;;7.40;6.80;;;;;;;;;;5073195;28;20440;-55
2021/12/30 02:55:05;;;;;;;7.63;6.93;;;;;;;;;;5074746;28;20751;-57
2021/12/30 02:57:31;;;;;;;6.87;6.37;;;;;;;;;;5074321;28;20407;-55
2021/12/30 02:59:57;;;;;;;6.80;6.30;;;;;;;;;;5074423;28;20490;-53
2021/12/30 03:02:23;;;;;;;8.13;6.30;;;;;;;;;;5074345;28;20475;-53
2021/12/30 03:04:49;;;;;;;7.13;6.53;;;;;;;;;;5074372;28;20440;-57
2021/12/30 03:07:18;;;;;;;6.83;6.10;;;;;;;;;;5074430;28;20442;-54
2021/12/30 03:09:45;;;;;;;7.20;6.70;;;;;;;;;;5074172;28;20430;-54
2021/12/30 03:12:11;;;;;;;7.63;7.00;;;;;;;;;;5074194;28;20467;-55
2021/12/30 03:14:41;;;;;;;7.70;7.10;;;;;;;;;;5074029;28;20407;-53
2021/12/30 03:17:07;;;;;;;7.20;6.50;;;;;;;;;;5074093;28;20769;-55
2021/12/30 03:19:33;;;;;;;7.43;6.73;;;;;;;;;;5072608;28;20535;-55
2021/12/30 03:21:59;;;;;;;7.30;6.70;;;;;;;;;;5074011;28;20980;-53
2021/12/30 03:24:25;;;;;;;6.80;6.30;;;;;;;;;;5073936;28;20417;-55
2021/12/30 03:26:51;;;;;;;8.00;7.30;;;;;;;;;;5073917;28;20407;-54
2021/12/30 03:29:18;;;;;;;7.93;7.33;;;;;;;;;;5073903;28;20410;-53
2021/12/30 03:31:44;;;;;;;7.30;6.50;;;;;;;;;;5073769;28;20561;-56
2021/12/30 03:34:10;;;;;;;7.87;7.27;;;;;;;;;;5073585;28;20434;-53
2021/12/30 03:36:37;;;;;;;7.83;6.97;;;;;;;;;;5073702;28;20414;-56
2021/12/30 03:39:04;;;;;;;14.00;8.00;;;;;;;;;;5073634;28;20399;-53
2021/12/30 03:41:30;;;;;;;8.60;7.63;;;;;;;;;;5073654;28;20963;-59
2021/12/30 03:43:57;;;;;;;8.87;7.60;;;;;;;;;;5073605;28;20895;-53
2021/12/30 03:46:23;;;;;;;9.00;7.77;;;;;;;;;;5073928;28;20849;-56
2021/12/30 03:48:49;;;;;;;8.30;7.60;;;;;;;;;;5073605;28;20883;-56
2021/12/30 03:51:22;;;;;;;7.80;7.00;;;;;;;;;;5073308;28;20961;-51
2021/12/30 03:53:49;;;;;;;9.30;8.40;;;;;;;;;;5073442;28;20409;-61
2021/12/30 03:56:16;;;;;;;8.00;7.30;;;;;;;;;;5073334;28;20418;-52
2021/12/30 03:58:43;;;;;;;8.33;6.83;;;;;;;;;;5072962;28;20414;-53
2021/12/30 04:01:10;;;;;;;7.97;7.17;;;;;;;;;;5073357;28;20403;-56
2021/12/30 04:03:37;;;;;;;7.73;7.03;;;;;;;;;;5073252;28;20410;-52
2021/12/30 04:06:03;;;;;;;7.50;6.80;;;;;;;;;;5073105;28;20454;-53
2021/12/30 04:08:29;;;;;;;7.97;7.17;;;;;;;;;;5073016;28;20447;-53
2021/12/30 04:10:56;;;;;;;7.10;6.60;;;;;;;;;;5072973;28;20563;-53
2021/12/30 04:13:23;;;;;;;8.93;7.13;;;;;;;;;;5072975;28;20435;-55
2021/12/30 04:15:49;;;;;;;7.90;6.60;;;;;;;;;;5072933;28;20513;-55
2021/12/30 04:18:15;;;;;;;6.87;6.23;;;;;;;;;;5072950;28;20501;-52
2021/12/30 04:20:41;;;;;;;7.40;6.57;;;;;;;;;;5072745;28;20506;-53
2021/12/30 04:23:07;;;;;;;6.97;6.37;;;;;;;;;;5072918;28;20414;-52
2021/12/30 04:25:34;;;;;;;7.40;6.70;;;;;;;;;;5072901;28;20787;-57
2021/12/30 04:28:00;;;;;;;7.10;6.50;;;;;;;;;;5072716;28;20406;-58
2021/12/30 04:30:26;;;;;;;7.00;6.30;;;;;;;;;;5072786;28;20454;-53
2021/12/30 04:32:52;;;;;;;6.67;6.07;;;;;;;;;;5073005;28;20410;-58
2021/12/30 04:35:19;;;;;;;7.57;6.80;;;;;;;;;;5072746;28;20634;-54
2021/12/30 04:37:45;;;;;;;6.63;6.10;;;;;;;;;;5072579;28;20973;-60
2021/12/30 04:40:11;;;;;;;8.87;6.80;;;;;;;;;;5072446;28;20411;-53
2021/12/30 04:42:37;;;;;;;6.70;6.00;;;;;;;;;;5072836;28;20406;-56
2021/12/30 04:45:04;;;;;;;7.70;6.50;;;;;;;;;;5072548;28;20806;-55
2021/12/30 04:47:31;;;;;;;12.00;9.60;;;;;;;;;;5072415;28;20788;-56
2021/12/30 04:49:57;;;;;;;7.30;6.50;;;;;;;;;;5072531;28;20414;-52
2021/12/30 04:52:24;;;;;;;7.57;6.60;;;;;;;;;;5072706;28;20980;-51
2021/12/30 04:54:51;;;;;;;6.87;6.23;;;;;;;;;;5072208;28;20506;-54
2021/12/30 04:57:17;;;;;;;7.10;6.40;;;;;;;;;;5070889;28;20422;-57
2021/12/30 04:59:43;;;;;;;7.80;6.83;;;;;;;;;;5072206;28;20415;-62
2021/12/30 05:02:09;;;;;;;10.33;6.50;;;;;;;;;;5072400;28;20415;-59
2021/12/30 05:04:35;;;;;;;7.00;6.50;;;;;;;;;;5072313;28;20414;-63
2021/12/30 05:07:01;;;;;;;8.10;6.77;;;;;;;;;;5072089;28;20411;-61
2021/12/30 05:09:27;;;;;;;7.67;6.80;;;;;;;;;;5071547;28;20411;-59
2021/12/30 05:11:53;;;;;;;7.67;6.87;;;;;;;;;;5070598;28;20515;-54
2021/12/30 05:14:19;;;;;;;6.90;6.40;;;;;;;;;;5072597;28;20406;-56
2021/12/30 05:16:45;;;;;;;7.90;6.77;;;;;;;;;;5072528;28;20826;-59
2021/12/30 05:19:11;;;;;;;7.27;6.43;;;;;;;;;;5071889;28;20403;-59
2021/12/30 05:21:37;;;;;;;7.23;6.53;;;;;;;;;;5071870;28;20414;-51
2021/12/30 05:24:04;;;;;;;9.93;6.03;;;;;;;;;;5071997;28;20489;-58
2021/12/30 05:26:30;;;;;;;10.13;6.97;;;;;;;;;;5071972;28;20432;-54
2021/12/30 05:28:57;;;;;;;7.97;6.67;;;;;;;;;;5071858;28;20894;-51
2021/12/30 05:31:23;;;;;;;10.00;6.83;;;;;;;;;;5071669;28;20861;-54
2021/12/30 05:33:49;;;;;;;7.00;6.40;;;;;;;;;;5070544;28;20410;-52
2021/12/30 05:36:15;;;;;;;8.80;7.33;;;;;;;;;;5071918;28;20419;-52
2021/12/30 05:38:41;;;;;;;8.53;6.77;;;;;;;;;;5071764;28;20406;-52
2021/12/30 05:41:07;;;;;;;7.10;6.40;;;;;;;;;;5071805;28;20442;-61
2021/12/30 05:43:33;;;;;;;8.80;6.33;;;;;;;;;;5071853;28;20450;-52
2021/12/30 05:45:59;;;;;;;9.50;6.90;;;;;;;;;;5071782;28;20407;-54
2021/12/30 05:48:25;;;;;;;7.77;6.90;;;;;;;;;;5071630;28;20518;-54
2021/12/30 05:50:53;;;;;;;9.53;7.17;;;;;;;;;;5071529;28;20466;-52
2021/12/30 05:53:19;;;;;;;9.03;6.30;;;;;;;;;;5070547;28;20434;-62
2021/12/30 05:55:45;;;;;;;8.70;6.80;;;;;;;;;;5071631;28;20415;-53
2021/12/30 05:58:11;;;;;;;10.40;7.37;;;;;;;;;;5071753;28;20415;-59
2021/12/30 06:00:38;;;;;;;8.13;7.13;;;;;;;;;;5071596;28;20425;-61
2021/12/30 06:03:04;;;;;;;9.90;6.87;;;;;;;;;;5071418;28;20761;-61
2021/12/30 06:05:30;;;;;;;7.90;7.10;;;;;;;;;;5071426;28;20414;-61
2021/12/30 06:07:56;;;;;;;7.87;6.87;;;;;;;;;;5071470;28;20409;-60
2021/12/30 06:10:22;;;;;;;9.17;7.53;;;;;;;;;;5071464;28;20425;-55
2021/12/30 06:12:48;;;;;;;8.40;7.20;;;;;;;;;;5071226;28;20407;-53
2021/12/30 06:15:14;;;;;;;9.50;7.17;;;;;;;;;;5071505;28;20834;-59
2021/12/30 06:17:41;;;;;;;10.00;7.80;;;;;;;;;;5071040;28;20457;-53
2021/12/30 06:20:09;;;;;;;12.13;8.13;;;;;;;;;;5071054;28;20486;-55
2021/12/30 06:22:35;;;;;;;10.07;7.33;;;;;;;;;;5073428;28;20406;-53
2021/12/30 06:25:01;;;;;;;8.00;6.53;;;;;;;;;;5074967;28;20434;-54
2021/12/30 06:27:27;;;;;;;8.50;7.37;;;;;;;;;;5075067;28;20432;-51
2021/12/30 06:29:53;;;;;;;11.07;8.17;;;;;;;;;;5075048;28;20399;-52
2021/12/30 06:32:19;;;;;;;10.80;7.60;;;;;;;;;;5073708;28;20474;-57
2021/12/30 06:34:45;;;;;;;8.90;6.97;;;;;;;;;;5075197;28;20394;-52
2021/12/30 06:37:11;;;;;;;11.10;7.47;;;;;;;;;;5073395;28;20475;-55
2021/12/30 06:39:37;;;;;;;10.30;8.00;;;;;;;;;;5073480;28;20504;-52
2021/12/30 06:42:03;;;;;;;12.03;8.03;;;;;;;;;;5074637;28;20497;-52
2021/12/30 06:44:29;;;;;;;9.27;7.90;;;;;;;;;;5074763;28;20417;-54
2021/12/30 06:47:01;;;;;;;10.97;8.17;;;;;;;;;;5074691;28;20502;-52
2021/12/30 06:49:34;;;;;;;13.87;8.00;;;;;;;;;;5074677;28;20502;-52
2021/12/30 06:52:00;;;;;;;10.90;7.87;;;;;;;;;;5073461;28;20480;-59
2021/12/30 06:54:26;;;;;;;11.70;8.23;;;;;;;;;;5074705;28;20407;-54
2021/12/30 06:56:55;;;;;;;14.23;8.83;;;;;;;;;;5074668;28;20414;-55
2021/12/30 06:59:21;;;;;;;13.20;8.10;;;;;;;;;;5074750;28;20813;-56
2021/12/30 07:01:47;;;;;;;14.00;7.63;;;;;;;;;;5074391;28;20946;-53
2021/12/30 07:04:13;;;;;;;11.27;8.27;;;;;;;;;;5074399;28;20475;-55
2021/12/30 07:06:39;;;;;;;11.13;8.47;;;;;;;;;;5074274;28;20527;-58
2021/12/30 07:09:05;;;;;;;9.73;8.00;;;;;;;;;;5073070;28;20933;-52
2021/12/30 07:11:32;;;;;;;12.43;8.60;;;;;;;;;;5073870;28;20470;-60
2021/12/30 07:13:58;;;;;;;10.93;7.93;;;;;;;;;;5074223;28;20780;-54
2021/12/30 07:16:24;;;;;;;9.30;6.83;;;;;;;;;;5074119;28;20417;-61
2021/12/30 07:18:50;;;;;;;13.63;8.40;;;;;;;;;;5074002;28;20410;-54
2021/12/30 07:21:16;;;;;;;11.90;7.83;;;;;;;;;;5073790;28;20481;-56
2021/12/30 07:23:43;;;;;;;9.13;7.70;;;;;;;;;;5074097;28;20810;-53
2021/12/30 07:26:10;;;;;;;13.30;7.53;;;;;;;;;;5073715;28;21008;-52
2021/12/30 07:28:36;;;;;;;13.53;8.67;;;;;;;;;;5073986;28;20411;-55
2021/12/30 07:31:02;;;;;;;14.10;8.10;;;;;;;;;;5073716;28;20516;-55
2021/12/30 07:33:28;;;;;;;14.57;7.97;;;;;;;;;;5073176;28;20419;-55
2021/12/30 07:35:54;;;;;;;11.27;8.30;;;;;;;;;;5073614;28;20409;-55
2021/12/30 07:38:22;;;;;;;11.47;7.67;;;;;;;;;;5074069;28;20461;-55
2021/12/30 07:40:48;;;;;;;11.53;8.10;;;;;;;;;;5073832;28;20418;-54
2021/12/30 07:43:14;;;;;;;14.43;8.50;;;;;;;;;;5073558;28;20411;-55
2021/12/30 07:45:40;;;;;;;12.97;7.63;;;;;;;;;;5073600;28;20880;-52
2021/12/30 07:48:06;;;;;;;13.77;7.60;;;;;;;;;;5073689;28;20921;-54
2021/12/30 07:50:32;;;;;;;11.90;7.73;;;;;;;;;;5073419;28;20480;-54
2021/12/30 07:52:59;;;;;;;13.53;8.10;;;;;;;;;;5073812;28;20415;-52
2021/12/30 07:55:25;;;;;;;11.23;7.00;;;;;;;;;;5073392;28;20414;-54
2021/12/30 07:57:55;;;;;;;13.43;8.30;;;;;;;;;;5073492;28;20415;-57
2021/12/30 08:00:21;;;;;;;12.43;7.60;;;;;;;;;;5073720;28;20410;-56
2021/12/30 08:02:47;;;;;;;13.43;7.87;;;;;;;;;;5073518;28;20439;-53
2021/12/30 08:05:15;;;;;;;13.27;7.80;;;;;;;;;;5073077;28;20910;-54
2021/12/30 08:07:42;;;;;;;13.93;7.97;;;;;;;;;;5073085;28;20863;-54
2021/12/30 08:10:12;;;;;;;17.07;8.30;;;;;;;;;;5073404;28;20810;-55
2021/12/30 08:12:39;;;;;;;14.70;7.83;;;;;;;;;;5073241;28;20509;-56
2021/12/30 08:15:06;;;;;;;17.97;8.60;;;;;;;;;;5071709;28;20907;-59
2021/12/30 08:17:32;;;;;;;23.63;7.47;;;;;;;;;;5071535;28;20457;-58
2021/12/30 08:19:58;;;;;;;14.73;8.37;;;;;;;;;;5072650;28;20963;-61
2021/12/30 08:22:24;;;;;;;14.63;6.83;;;;;;;;;;5072873;28;20414;-56
2021/12/30 08:24:50;;;;;;;17.17;8.07;;;;;;;;;;5072998;28;20476;-60
2021/12/30 08:27:16;;;;;;;14.40;7.77;;;;;;;;;;5071121;28;20978;-57
2021/12/30 08:29:43;;;;;;;11.93;7.60;;;;;;;;;;5072803;28;20399;-54
2021/12/30 08:32:11;;;;;;;13.70;7.33;;;;;;;;;;5072612;28;20828;-58
2021/12/30 08:34:37;;;;;;;11.43;7.27;;;;;;;;;;5072427;28;20406;-53
2021/12/30 08:37:04;;;;;;;10.83;7.70;;;;;;;;;;5072543;28;20406;-56
2021/12/30 08:39:30;;;;;;;19.17;9.00;;;;;;;;;;5072489;28;20403;-53
2021/12/30 08:41:57;;;;;;;18.33;7.60;;;;;;;;;;5072463;28;20498;-56
2021/12/30 08:44:24;;;;;;;15.10;7.57;;;;;;;;;;5071732;28;20411;-58
2021/12/30 08:46:51;;;;;;;14.93;7.40;;;;;;;;;;5072517;28;20406;-52
2021/12/30 08:49:17;;;;;;;11.37;7.27;;;;;;;;;;5072539;28;20834;-55
2021/12/30 08:51:43;;;;;;;10.20;7.00;;;;;;;;;;5072046;28;20527;-58
2021/12/30 08:54:09;;;;;;;16.47;7.33;;;;;;;;;;5072332;28;20883;-54
2021/12/30 08:56:35;;;;;;;20.17;8.07;;;;;;;;;;5072326;28;20498;-54
2021/12/30 08:59:01;;;;;;;10.53;7.20;;;;;;;;;;5072226;28;20415;-54
2021/12/30 09:01:27;;;;;;;13.30;7.50;;;;;;;;;;5072540;28;20417;-61
2021/12/30 09:03:53;;;;;;;18.17;7.17;;;;;;;;;;5072368;28;20406;-57
2021/12/30 09:06:20;;;;;;;15.33;6.77;;;;;;;;;;5072537;28;20502;-52
2021/12/30 09:08:46;;;;;;;11.90;6.73;;;;;;;;;;5072474;28;20418;-56
2021/12/30 09:11:12;;;;;;;15.90;6.70;;;;;;;;;;5072255;28;20526;-58
2021/12/30 09:13:38;;;;;;;10.80;6.10;;;;;;;;;;5072454;28;20745;-62
2021/12/30 09:16:04;;;;;;;16.43;7.00;;;;;;;;;;5072047;28;20414;-59
2021/12/30 09:18:30;;;;;;;10.17;6.53;;;;;;;;;;5072104;28;20430;-56
2021/12/30 09:20:56;;;;;;;16.97;7.00;;;;;;;;;;5070363;28;20795;-59
2021/12/30 09:23:23;;;;;;;14.97;7.10;;;;;;;;;;5070648;28;20435;-55
2021/12/30 09:25:49;;;;;;;12.13;6.60;;;;;;;;;;5070611;28;20410;-52
2021/12/30 09:28:15;;;;;;;13.50;7.23;;;;;;;;;;5071758;28;20507;-64
2021/12/30 09:30:43;;;;;;;9.47;6.43;;;;;;;;;;5071696;28;20466;-56
2021/12/30 09:33:09;;;;;;;11.70;6.33;;;;;;;;;;5070550;28;20426;-63
2021/12/30 09:35:36;;;;;;;16.77;7.20;;;;;;;;;;5071943;28;20414;-63
2021/12/30 09:38:02;;;;;;;14.53;6.90;;;;;;;;;;5071760;28;20399;-54
2021/12/30 09:40:28;;;;;;;9.53;7.20;;;;;;;;;;5072211;28;20789;-55
2021/12/30 09:43:01;;;;;;;15.00;6.80;;;;;;;;;;5071979;28;20489;-56
2021/12/30 09:45:27;;;;;;;8.60;6.47;;;;;;;;;;5071783;28;20418;-54
2021/12/30 09:47:55;;;;;;;8.30;6.20;;;;;;;;;;5071757;28;20886;-55
2021/12/30 09:50:25;;;;;;;14.17;7.40;;;;;;;;;;5071889;28;20419;-56
2021/12/30 09:52:51;;;;;;;16.33;7.20;;;;;;;;;;5071559;28;20451;-54
2021/12/30 09:55:17;;;;;;;15.40;6.50;;;;;;;;;;5071837;28;20484;-54
2021/12/30 09:57:43;;;;;;;11.27;6.33;;;;;;;;;;5075725;28;21933;-52
2021/12/30 10:00:11;;;;;;;10.47;6.13;;;;;;;;;;5074324;28;20423;-57
2021/12/30 10:02:38;;;;;;;12.20;7.00;;;;;;;;;;5075509;28;20411;-60
2021/12/30 10:05:05;;;;;;;13.50;6.90;;;;;;;;;;5075560;28;20487;-56
2021/12/30 10:07:31;;;;;;;9.53;6.20;;;;;;;;;;5075648;28;21085;-54
2021/12/30 10:10:01;;;;;;;10.10;7.00;;;;;;;;;;5075444;28;20410;-58
2021/12/30 10:12:44;;;;;;;9.43;6.10;;;;;;;;;;5075551;28;20458;-60
2021/12/30 10:15:10;;;;;;;8.73;6.20;;;;;;;;;;5075498;28;20402;-58
2021/12/30 10:17:36;;;;;;;11.37;6.10;;;;;;;;;;5073958;28;20422;-55
2021/12/30 10:20:16;;;;;;;11.00;5.83;;;;;;;;;;5075072;28;20977;-54
2021/12/30 10:22:42;;;;;;;15.27;7.10;;;;;;;;;;5075271;28;20444;-57
2021/12/30 10:25:27;;;;;;;12.97;6.40;;;;;;;;;;5075126;28;20406;-58
2021/12/30 10:27:53;;;;;;;11.90;6.47;;;;;;;;;;5075061;28;20522;-54
2021/12/30 10:30:32;;;;;;;13.67;6.90;;;;;;;;;;5073864;28;20440;-53
2021/12/30 10:33:15;;;;;;;8.90;6.40;;;;;;;;;;5073062;28;20422;-54
2021/12/30 10:35:42;;;;;;;9.30;5.67;;;;;;;;;;5072392;28;20433;-56
2021/12/30 10:38:10;;;;;;;9.67;6.30;;;;;;;;;;5072468;28;20933;-52
2021/12/30 10:40:37;;;;;;;14.23;6.67;;;;;;;;;;5072438;28;20418;-59
2021/12/30 10:43:27;;;;;;;19.70;6.77;;;;;;;;;;5072558;28;20460;-58
2021/12/30 10:46:04;;;;;;;9.67;7.07;;;;;;;;;;5073480;28;20410;-54
2021/12/30 10:48:30;;;;;;;13.47;6.27;;;;;;;;;;5071529;28;20453;-53
2021/12/30 10:51:13;;;;;;;14.13;6.13;;;;;;;;;;5071808;28;20466;-59
2021/12/30 10:53:39;;;;;;;12.87;6.30;;;;;;;;;;5072345;28;20422;-60
2021/12/30 10:56:24;;;;;;;10.83;6.43;;;;;;;;;;5072397;28;20398;-58
2021/12/30 10:58:50;;;;;;;11.57;6.23;;;;;;;;;;5071279;28;20452;-60
2021/12/30 11:01:18;;;;;;;8.67;6.60;;;;;;;;;;5072010;28;20490;-59
2021/12/30 11:03:54;;;;;;;10.37;6.60;;;;;;;;;;5073480;28;20410;-58
2021/12/30 11:06:20;;;;;;;11.00;5.80;;;;;;;;;;5072627;28;20505;-62
2021/12/30 11:08:49;;;;;;;7.93;6.10;;;;;;;;;;5072050;28;20407;-57
2021/12/30 11:11:29;;;;;;;11.43;5.60;;;;;;;;;;5071306;28;20489;-55
2021/12/30 11:13:59;;;;;;;13.30;5.50;;;;;;;;;;5072589;28;20489;-58
2021/12/30 11:16:25;;;;;;;6.07;5.47;;;;;;;;;;5072298;28;20415;-60
2021/12/30 11:18:52;;;;;;;9.67;5.20;;;;;;;;;;5072368;28;20410;-59
2021/12/30 11:21:36;;;;;;;7.33;5.40;;;;;;;;;;5071846;28;20438;-59
2021/12/30 11:24:04;;;;;;;5.33;5.00;;;;;;;;;;5072055;28;20403;-56
2021/12/30 11:26:31;;;;;;;9.80;5.30;;;;;;;;;;5072016;28;20444;-57
2021/12/30 11:28:57;;;;;;;5.60;5.10;;;;;;;;;;5071666;28;20391;-57
2021/12/30 11:31:24;;;;;;;7.80;5.90;;;;;;;;;;5071973;28;20853;-60
2021/12/30 11:33:49;;;;;;;5.57;5.17;;;;;;;;;;5071888;28;20497;-57
2021/12/30 11:36:18;;;;;;;6.50;5.43;;;;;;;;;;5071914;28;20426;-57
2021/12/30 11:38:45;;;;;;;8.73;5.30;;;;;;;;;;5073722;28;20461;-57
2021/12/30 11:41:21;;;;;;;6.57;4.97;;;;;;;;;;5071369;28;20423;-61
2021/12/30 11:43:48;;;;;;;8.57;5.10;;;;;;;;;;5071606;28;20410;-62
2021/12/30 11:46:33;;;;;;;5.73;4.90;;;;;;;;;;5071395;28;20407;-59
2021/12/30 11:48:59;;;;;;;7.10;4.93;;;;;;;;;;5071179;28;20414;-59
2021/12/30 11:51:40;;;;;;;5.97;5.17;;;;;;;;;;5070255;28;20477;-62
2021/12/30 11:54:24;;;;;;;7.33;4.60;;;;;;;;;;5071720;28;20399;-56
2021/12/30 11:57:09;;;;;;;4.90;4.30;;;;;;;;;;5071692;28;20395;-62
2021/12/30 11:59:39;;;;;;;4.93;4.10;;;;;;;;;;5071581;28;20399;-60
2021/12/30 12:02:25;;;;;;;4.20;4.00;;;;;;;;;;5071146;28;20471;-58
2021/12/30 12:04:51;;;;;;;4.00;3.80;;;;;;;;;;5071360;28;20403;-60
2021/12/30 12:07:17;;;;;;;4.40;4.10;;;;;;;;;;5070972;28;20426;-60
2021/12/30 12:09:43;;;;;;;4.30;3.97;;;;;;;;;;5070349;28;20415;-61
2021/12/30 12:12:14;;;;;;;7.37;4.60;;;;;;;;;;5069669;28;20473;-59
2021/12/30 12:14:54;;;;;;;3.70;3.50;;;;;;;;;;5069752;28;20411;-59
2021/12/30 12:17:33;;;;;;;4.27;3.97;;;;;;;;;;5069699;28;20403;-62
2021/12/30 12:20:12;;;;;;;3.87;3.70;;;;;;;;;;5069581;28;20591;-56
2021/12/30 12:22:38;;;;;;;3.30;3.10;;;;;;;;;;5069574;28;20497;-57
2021/12/30 12:25:08;;;;;;;3.63;3.43;;;;;;;;;;5069862;28;20452;-58
2021/12/30 12:27:35;;;;;;;4.93;4.50;;;;;;;;;;5069330;28;20446;-60
2021/12/30 12:30:01;;;;;;;3.90;3.70;;;;;;;;;;5069542;28;20478;-56
2021/12/30 12:32:30;;;;;;;4.10;3.60;;;;;;;;;;5068670;28;20462;-62
2021/12/30 12:35:01;;;;;;;3.50;3.30;;;;;;;;;;5069503;28;20442;-58
2021/12/30 12:37:30;;;;;;;3.60;3.40;;;;;;;;;;5073257;28;20912;-57
2021/12/30 12:39:58;;;;;;;4.60;4.27;;;;;;;;;;5070145;28;20486;-60
2021/12/30 12:42:42;;;;;;;3.53;3.23;;;;;;;;;;5069206;28;20407;-64
2021/12/30 12:45:18;;;;;;;3.17;3.07;;;;;;;;;;5068309;28;20426;-57
2021/12/30 12:47:44;;;;;;;3.30;3.20;;;;;;;;;;5069508;28;20411;-57
2021/12/30 12:50:10;;;;;;;3.30;3.10;;;;;;;;;;5069478;28;20413;-61
2021/12/30 12:52:43;;;;;;;3.40;3.23;;;;;;;;;;5069889;28;20569;-58
2021/12/30 12:55:12;;;;;;;3.57;3.37;;;;;;;;;;5069816;28;20403;-54
2021/12/30 12:57:41;;;;;;;3.40;3.30;;;;;;;;;;5069567;28;20462;-55
2021/12/30 13:00:07;;;;;;;3.30;3.20;;;;;;;;;;5069528;28;20402;-57
2021/12/30 13:02:33;;;;;;;3.30;3.20;;;;;;;;;;5069114;28;20460;-57
2021/12/30 13:05:12;;;;;;;3.10;3.00;;;;;;;;;;5068899;28;20414;-57
2021/12/30 13:07:38;;;;;;;3.20;3.10;;;;;;;;;;5069053;28;20409;-58
2021/12/30 13:10:04;;;;;;;7.57;3.47;;;;;;;;;;5069399;28;20417;-56
2021/12/30 13:12:38;;;;;;;4.20;3.23;;;;;;;;;;5068836;28;20852;-64
2021/12/30 13:15:11;;;;;;;3.20;3.10;;;;;;;;;;5069176;28;20748;-66
2021/12/30 13:17:37;;;;;;;3.23;3.07;;;;;;;;;;5069023;28;20411;-64
2021/12/30 13:20:03;;;;;;;3.30;3.20;;;;;;;;;;5068373;28;20450;-64
2021/12/30 13:22:31;;;;;;;3.00;2.90;;;;;;;;;;5068212;28;20423;-57
2021/12/30 13:24:58;;;;;;;3.40;3.20;;;;;;;;;;5068870;28;20410;-56
2021/12/30 13:27:24;;;;;;;3.57;3.17;;;;;;;;;;5068641;28;20748;-58
2021/12/30 13:29:51;;;;;;;3.60;3.50;;;;;;;;;;5067344;28;20436;-58
2021/12/30 13:32:21;;;;;;;3.23;3.13;;;;;;;;;;5068520;28;20958;-60
2021/12/30 13:34:57;;;;;;;3.03;2.93;;;;;;;;;;5069017;28;20437;-59
2021/12/30 13:37:26;;;;;;;3.27;3.17;;;;;;;;;;5069248;28;20489;-57
2021/12/30 13:39:55;;;;;;;3.00;2.90;;;;;;;;;;5069116;28;21042;-57
2021/12/30 13:42:21;;;;;;;3.33;3.17;;;;;;;;;;5068713;28;20460;-56
2021/12/30 13:44:49;;;;;;;3.10;3.00;;;;;;;;;;5068444;28;20422;-57
2021/12/30 13:47:18;;;;;;;3.47;3.37;;;;;;;;;;5068754;28;20433;-57
2021/12/30 13:49:44;;;;;;;3.20;3.10;;;;;;;;;;5068520;28;20418;-57
2021/12/30 13:52:10;;;;;;;3.03;2.93;;;;;;;;;;5068133;28;20474;-56
2021/12/30 13:54:36;;;;;;;3.20;3.10;;;;;;;;;;5068106;28;20411;-58
2021/12/30 13:57:02;;;;;;;3.33;3.13;;;;;;;;;;5068351;28;20419;-64
2021/12/30 13:59:32;;;;;;;3.10;3.00;;;;;;;;;;5067490;28;20415;-59
2021/12/30 14:01:59;;;;;;;3.37;3.27;;;;;;;;;;5068099;28;20831;-63
2021/12/30 14:04:28;;;;;;;3.10;3.00;;;;;;;;;;5067795;28;20411;-59
2021/12/30 14:06:58;;;;;;;2.90;2.80;;;;;;;;;;5068316;28;20406;-62
2021/12/30 14:09:25;;;;;;;3.20;3.10;;;;;;;;;;5067023;28;20407;-56
2021/12/30 14:11:52;;;;;;;2.80;2.80;;;;;;;;;;5067519;28;20465;-57
2021/12/30 14:14:22;;;;;;;2.60;2.50;;;;;;;;;;5067977;28;20422;-59
2021/12/30 14:16:51;;;;;;;3.50;3.40;;;;;;;;;;5067551;28;20506;-57
2021/12/30 14:19:17;;;;;;;3.03;2.93;;;;;;;;;;5067839;28;20798;-56
2021/12/30 14:21:44;;;;;;;3.07;2.97;;;;;;;;;;5066962;28;20423;-59
2021/12/30 14:24:19;;;;;;;2.90;2.80;;;;;;;;;;5064683;28;20916;-59
2021/12/30 14:26:46;;;;;;;2.90;2.80;;;;;;;;;;5067896;28;20497;-57
2021/12/30 14:29:13;;;;;;;2.90;2.80;;;;;;;;;;5068545;28;20414;-61
2021/12/30 14:31:42;;;;;;;3.00;2.90;;;;;;;;;;5068796;28;20470;-62
2021/12/30 14:34:13;;;;;;;2.90;2.80;;;;;;;;;;5067848;28;20485;-64
2021/12/30 14:36:48;;;;;;;8.53;2.80;;;;;;;;;;5067962;28;20446;-62
2021/12/30 14:39:39;;;;;;;3.20;3.00;;;;;;;;;;5062740;28;20410;-55
2021/12/30 14:42:07;;;;;;;2.80;2.70;;;;;;;;;;5065556;28;20431;-59
2021/12/30 14:44:33;;;;;;;2.97;2.87;;;;;;;;;;5071731;28;20429;-57